createdAt,value
2023-03-06T00:00:42.644Z,14.63
2023-03-06T00:03:09.344Z,18.40
2023-03-06T00:05:36.327Z,15.33
2023-03-06T00:08:03.604Z,18.43
2023-03-06T00:10:31.342Z,15.87
2023-03-06T00:13:00.381Z,19.10
2023-03-06T00:15:27.965Z,12.50
2023-03-06T00:17:55.030Z,11.33
2023-03-06T00:20:22.330Z,10.83
2023-03-06T00:22:49.624Z,16.03
2023-03-06T00:25:19.034Z,14.87
2023-03-06T00:27:45.843Z,13.13
2023-03-06T00:30:16.275Z,14.87
2023-03-06T00:32:43.710Z,11.37
2023-03-06T00:35:10.922Z,12.83
2023-03-06T00:37:37.863Z,8.33
2023-03-06T00:40:11.258Z,14.83
2023-03-06T00:42:38.098Z,11.10
2023-03-06T00:45:06.205Z,11.17
2023-03-06T00:47:33.125Z,22.63
2023-03-06T00:49:59.992Z,12.53
2023-03-06T00:52:26.760Z,11.10
2023-03-06T00:54:53.512Z,11.73
2023-03-06T00:57:20.384Z,12.50
2023-03-06T00:59:47.122Z,11.77
2023-03-06T01:02:14.352Z,15.20
2023-03-06T01:04:41.360Z,25.43
2023-03-06T01:07:08.203Z,16.83
2023-03-06T01:09:35.030Z,11.23
2023-03-06T01:12:01.879Z,13.83
2023-03-06T01:14:28.617Z,16.63
2023-03-06T01:16:55.446Z,14.33
2023-03-06T01:19:22.203Z,12.00
2023-03-06T01:21:49.005Z,14.20
2023-03-06T01:24:15.776Z,10.60
2023-03-06T01:26:42.576Z,11.30
2023-03-06T01:29:09.354Z,12.87
2023-03-06T01:31:36.260Z,20.03
2023-03-06T01:34:03.096Z,14.80
2023-03-06T01:36:29.901Z,21.03
2023-03-06T01:38:56.605Z,15.83
2023-03-06T01:41:23.319Z,9.60
2023-03-06T01:43:50.515Z,9.97
2023-03-06T01:46:23.091Z,10.63
2023-03-06T01:48:54.487Z,10.30
2023-03-06T01:51:22.372Z,10.90
2023-03-06T01:53:50.770Z,10.53
2023-03-06T01:56:17.854Z,9.83
2023-03-06T01:58:44.776Z,9.17
2023-03-06T02:01:13.377Z,12.47
2023-03-06T02:03:40.863Z,12.87
2023-03-06T02:06:08.011Z,10.93
2023-03-06T02:08:34.860Z,15.27
2023-03-06T02:11:08.948Z,15.67
2023-03-06T02:13:36.736Z,15.20
2023-03-06T02:16:03.952Z,12.37
2023-03-06T02:18:31.826Z,17.83
2023-03-06T02:21:01.088Z,15.57
2023-03-06T02:23:37.015Z,14.80
2023-03-06T02:26:04.580Z,17.73
2023-03-06T02:28:31.537Z,11.10
2023-03-06T02:30:58.346Z,15.70
2023-03-06T02:33:27.362Z,14.70
2023-03-06T02:35:55.777Z,9.10
2023-03-06T02:38:27.071Z,13.90
2023-03-06T02:40:54.120Z,11.47
2023-03-06T02:43:28.559Z,9.30
2023-03-06T02:45:55.445Z,11.80
2023-03-06T02:48:22.235Z,13.13
2023-03-06T02:50:49.421Z,13.33
2023-03-06T02:53:18.385Z,10.30
2023-03-06T02:55:45.560Z,10.40
2023-03-06T02:58:12.603Z,10.33
2023-03-06T03:00:40.157Z,14.03
2023-03-06T03:03:07.845Z,15.57
2023-03-06T03:05:34.632Z,10.67
2023-03-06T03:08:01.294Z,13.13
2023-03-06T03:10:28.159Z,12.33
2023-03-06T03:12:54.899Z,11.27
2023-03-06T03:15:21.727Z,9.20
2023-03-06T03:17:48.497Z,13.77
2023-03-06T03:20:18.810Z,14.13
2023-03-06T03:23:03.836Z,15.50
2023-03-06T03:25:30.597Z,9.40
2023-03-06T03:27:57.323Z,11.83
2023-03-06T03:30:24.173Z,12.20
2023-03-06T03:32:50.900Z,9.73
2023-03-06T03:35:17.771Z,13.60
2023-03-06T03:37:45.045Z,14.07
2023-03-06T03:40:12.392Z,13.03
2023-03-06T03:42:39.397Z,17.57
2023-03-06T03:45:06.682Z,12.50
2023-03-06T03:47:33.382Z,11.83
2023-03-06T03:50:00.128Z,13.80
2023-03-06T03:52:26.934Z,9.17
2023-03-06T03:54:53.722Z,11.90
2023-03-06T03:57:20.385Z,16.13
2023-03-06T03:59:47.091Z,16.13
2023-03-06T04:02:13.855Z,11.67
2023-03-06T04:04:40.913Z,17.10
2023-03-06T04:07:07.702Z,14.43
2023-03-06T04:09:34.428Z,17.33
2023-03-06T04:12:01.239Z,12.87
2023-03-06T04:14:27.946Z,10.10
2023-03-06T04:16:54.709Z,15.00
2023-03-06T04:19:21.574Z,12.60
2023-03-06T04:21:48.471Z,17.23
2023-03-06T04:24:15.169Z,17.63
2023-03-06T04:26:42.004Z,11.87
2023-03-06T04:29:08.902Z,13.90
2023-03-06T04:31:35.752Z,12.63
2023-03-06T04:34:02.528Z,13.63
2023-03-06T04:36:31.784Z,15.30
2023-03-06T04:38:59.515Z,14.40
2023-03-06T04:41:26.349Z,18.80
2023-03-06T04:43:53.512Z,11.87
2023-03-06T04:46:20.389Z,15.57
2023-03-06T04:48:47.154Z,18.40
2023-03-06T04:51:14.751Z,19.30
2023-03-06T04:53:41.545Z,16.77
2023-03-06T04:56:08.501Z,17.77
2023-03-06T04:58:35.290Z,19.23
2023-03-06T05:01:02.165Z,18.30
2023-03-06T05:03:28.857Z,16.73
2023-03-06T05:05:55.728Z,20.17
2023-03-06T05:08:23.799Z,15.80
2023-03-06T05:10:56.489Z,20.70
2023-03-06T05:13:23.802Z,21.40
2023-03-06T05:15:50.569Z,15.77
2023-03-06T05:18:17.518Z,49.00
2023-03-06T05:20:44.376Z,29.97
2023-03-06T05:23:10.995Z,19.53
2023-03-06T05:25:40.792Z,14.83
2023-03-06T05:28:07.965Z,13.07
2023-03-06T05:30:35.210Z,13.53
2023-03-06T05:33:01.812Z,14.13
2023-03-06T05:35:28.528Z,17.23
2023-03-06T05:37:55.268Z,14.93
2023-03-06T05:40:22.386Z,14.30
2023-03-06T05:42:49.091Z,18.33
2023-03-06T05:45:15.916Z,19.73
2023-03-06T05:47:42.640Z,14.60
2023-03-06T05:50:10.641Z,24.40
2023-03-06T05:52:39.597Z,20.07
2023-03-06T05:55:07.038Z,19.53
2023-03-06T05:57:33.810Z,17.97
2023-03-06T06:00:00.563Z,19.80
2023-03-06T06:02:27.318Z,28.27
2023-03-06T06:04:54.101Z,18.10
2023-03-06T06:07:20.828Z,25.47
2023-03-06T06:09:47.577Z,28.17
2023-03-06T06:12:14.347Z,21.60
2023-03-06T06:14:41.159Z,22.53
2023-03-06T06:17:08.167Z,14.37
2023-03-06T06:19:35.337Z,15.53
2023-03-06T06:22:03.868Z,15.83
2023-03-06T06:24:31.987Z,17.00
2023-03-06T06:26:59.691Z,19.40
2023-03-06T06:29:28.478Z,20.70
2023-03-06T06:31:55.859Z,23.77
2023-03-06T06:34:23.077Z,27.80
2023-03-06T06:36:53.222Z,12.83
2023-03-06T06:39:21.889Z,22.60
2023-03-06T06:42:05.544Z,15.50
2023-03-06T06:44:37.437Z,15.90
2023-03-06T06:47:24.192Z,27.23
2023-03-06T06:49:53.237Z,40.20
2023-03-06T06:52:20.215Z,19.67
2023-03-06T06:54:47.081Z,19.53
2023-03-06T06:57:13.849Z,16.53
2023-03-06T06:59:40.599Z,17.47
2023-03-06T07:02:07.423Z,18.70
2023-03-06T07:04:34.368Z,20.10
2023-03-06T07:07:01.339Z,21.70
2023-03-06T07:09:30.588Z,21.80
2023-03-06T07:11:57.795Z,20.87
2023-03-06T07:14:25.499Z,16.93
2023-03-06T07:16:52.250Z,19.63
2023-03-06T07:19:19.083Z,16.60
2023-03-06T07:21:45.837Z,18.00
2023-03-06T07:24:12.648Z,21.77
2023-03-06T07:26:39.501Z,30.53
2023-03-06T07:29:06.330Z,23.97
2023-03-06T07:31:33.126Z,40.33
2023-03-06T07:34:00.224Z,25.30
2023-03-06T07:36:27.519Z,37.50
2023-03-06T07:38:54.362Z,28.23
2023-03-06T07:41:22.632Z,25.70
2023-03-06T07:43:50.414Z,28.13
2023-03-06T07:46:17.554Z,22.20
2023-03-06T07:48:44.820Z,23.03
2023-03-06T07:51:16.714Z,27.80
2023-03-06T07:53:43.750Z,27.07
2023-03-06T07:56:11.928Z,28.57
2023-03-06T07:58:41.082Z,27.70
2023-03-06T08:01:16.836Z,26.67
2023-03-06T08:03:44.133Z,27.47
2023-03-06T08:06:13.122Z,24.77
2023-03-06T08:08:41.846Z,24.63
2023-03-06T08:11:10.042Z,36.20
2023-03-06T08:13:37.322Z,30.00
2023-03-06T08:16:04.556Z,25.57
2023-03-06T08:18:31.532Z,27.60
2023-03-06T08:21:15.168Z,25.43
2023-03-06T08:23:43.158Z,18.10
2023-03-06T08:26:18.953Z,20.37
2023-03-06T08:28:46.252Z,19.93
2023-03-06T08:31:29.838Z,22.03
2023-03-06T08:33:58.452Z,24.67
2023-03-06T08:36:25.520Z,19.83
2023-03-06T08:38:52.750Z,23.57
2023-03-06T08:41:20.373Z,21.93
2023-03-06T08:43:47.742Z,19.77
2023-03-06T08:46:14.540Z,24.50
2023-03-06T08:48:41.280Z,21.60
2023-03-06T08:51:12.430Z,21.93
2023-03-06T08:53:44.052Z,21.37
2023-03-06T08:56:32.338Z,21.17
2023-03-06T08:59:00.889Z,24.13
2023-03-06T09:01:30.187Z,24.30
2023-03-06T09:03:59.825Z,28.80
2023-03-06T09:06:27.434Z,33.80
2023-03-06T09:08:54.687Z,22.43
2023-03-06T09:11:22.828Z,19.33
2023-03-06T09:13:49.562Z,30.10
2023-03-06T09:16:16.409Z,24.00
2023-03-06T09:18:43.261Z,25.23
2023-03-06T09:21:10.200Z,30.77
2023-03-06T09:23:39.635Z,21.07
2023-03-06T09:26:07.725Z,20.83
2023-03-06T09:28:39.256Z,25.37
2023-03-06T09:31:13.106Z,25.93
2023-03-06T09:33:39.983Z,22.53
2023-03-06T09:36:15.967Z,20.83
2023-03-06T09:38:42.856Z,22.80
2023-03-06T09:41:23.716Z,22.50
2023-03-06T09:43:56.663Z,28.13
2023-03-06T09:46:46.702Z,35.37
2023-03-06T09:49:13.395Z,27.07
2023-03-06T09:51:51.509Z,22.30
2023-03-06T09:54:20.650Z,35.80
2023-03-06T09:56:49.923Z,19.13
2023-03-06T09:59:21.438Z,27.70
2023-03-06T10:02:01.862Z,43.23
2023-03-06T10:04:42.861Z,24.53
2023-03-06T10:07:20.978Z,22.00
2023-03-06T10:10:00.698Z,26.73
2023-03-06T10:12:31.014Z,19.97
2023-03-06T10:15:03.871Z,25.53
2023-03-06T10:17:41.658Z,31.37
2023-03-06T10:20:30.699Z,18.20
2023-03-06T10:23:28.548Z,22.90
2023-03-06T10:26:02.014Z,24.77
2023-03-06T10:28:33.802Z,21.50
2023-03-06T10:31:08.382Z,18.23
2023-03-06T10:33:59.756Z,24.57
2023-03-06T10:36:28.229Z,21.13
2023-03-06T10:38:57.357Z,24.60
2023-03-06T10:41:29.992Z,25.73
2023-03-06T10:43:59.692Z,19.20
2023-03-06T10:46:28.971Z,22.83
2023-03-06T10:49:04.242Z,22.07
2023-03-06T10:51:31.884Z,20.87
2023-03-06T10:54:19.444Z,19.03
2023-03-06T10:56:47.197Z,24.70
2023-03-06T10:59:19.598Z,28.50
2023-03-06T11:01:51.793Z,27.63
2023-03-06T11:04:26.621Z,22.40
2023-03-06T11:07:15.980Z,18.83
2023-03-06T11:09:58.509Z,21.57
2023-03-06T11:12:39.386Z,31.03
2023-03-06T11:15:15.268Z,26.57
2023-03-06T11:18:06.030Z,23.40
2023-03-06T11:20:51.554Z,24.03
2023-03-06T11:23:25.468Z,23.33
2023-03-06T11:25:56.296Z,26.23
2023-03-06T11:28:30.323Z,22.60
2023-03-06T11:31:10.979Z,45.93
2023-03-06T11:33:46.536Z,32.23
2023-03-06T11:36:16.280Z,26.50
2023-03-06T11:38:49.227Z,23.60
2023-03-06T11:41:34.436Z,24.47
2023-03-06T11:44:24.698Z,20.07
2023-03-06T11:46:58.386Z,30.33
2023-03-06T11:49:25.167Z,24.23
2023-03-06T11:52:04.900Z,18.90
2023-03-06T11:54:32.278Z,24.83
2023-03-06T11:57:02.664Z,19.63
2023-03-06T11:59:41.518Z,23.63
2023-03-06T12:02:26.534Z,18.67
2023-03-06T12:05:02.592Z,24.10
2023-03-06T12:07:34.587Z,23.10
2023-03-06T12:10:16.013Z,29.17
2023-03-06T12:13:27.392Z,22.17
2023-03-06T12:16:39.339Z,28.13
2023-03-06T12:19:24.523Z,24.43
2023-03-06T12:21:57.051Z,20.63
2023-03-06T12:24:42.511Z,23.83
2023-03-06T12:27:21.342Z,21.17
2023-03-06T12:29:53.878Z,22.73
2023-03-06T12:33:14.690Z,22.03
2023-03-06T12:35:53.347Z,22.17
2023-03-06T12:38:32.101Z,22.70
2023-03-06T12:41:02.203Z,28.60
2023-03-06T12:43:50.858Z,49.77
2023-03-06T12:46:23.903Z,29.40
2023-03-06T12:49:03.713Z,24.90
2023-03-06T12:51:31.703Z,27.80
2023-03-06T12:53:59.504Z,24.10
2023-03-06T12:56:26.794Z,19.40
2023-03-06T12:58:55.114Z,27.60
2023-03-06T13:01:51.789Z,22.27
2023-03-06T13:04:45.376Z,30.23
2023-03-06T13:07:36.873Z,24.70
2023-03-06T13:10:26.661Z,20.97
2023-03-06T13:13:15.985Z,22.37
2023-03-06T13:15:46.782Z,23.07
2023-03-06T13:18:22.649Z,25.97
2023-03-06T13:20:53.606Z,26.17
2023-03-06T13:23:29.609Z,16.67
2023-03-06T13:26:02.149Z,19.07
2023-03-06T13:28:47.781Z,23.57
2023-03-06T13:31:38.545Z,25.93
2023-03-06T13:34:06.701Z,28.77
2023-03-06T13:36:39.682Z,20.83
2023-03-06T13:39:10.816Z,28.23
2023-03-06T13:41:55.415Z,27.53
2023-03-06T13:44:25.320Z,18.07
2023-03-06T13:47:00.982Z,24.33
2023-03-06T13:49:27.929Z,18.40
2023-03-06T13:51:54.736Z,22.43
2023-03-06T13:54:44.677Z,25.27
2023-03-06T13:57:20.389Z,24.07
2023-03-06T14:00:11.645Z,19.83
2023-03-06T14:02:56.568Z,25.83
2023-03-06T14:05:23.948Z,23.60
2023-03-06T14:08:04.121Z,22.60
2023-03-06T14:10:34.575Z,18.60
2023-03-06T14:13:18.714Z,21.37
2023-03-06T14:15:49.241Z,23.67
2023-03-06T14:18:19.964Z,23.67
2023-03-06T14:20:52.635Z,22.90
2023-03-06T14:23:35.540Z,21.10
2023-03-06T14:26:15.360Z,24.63
2023-03-06T14:28:43.894Z,33.57
2023-03-06T14:31:22.905Z,22.53
2023-03-06T14:33:56.728Z,27.70
2023-03-06T14:36:32.316Z,25.27
2023-03-06T14:39:02.586Z,26.57
2023-03-06T14:41:32.190Z,28.80
2023-03-06T14:44:22.229Z,32.40
2023-03-06T14:46:55.137Z,25.27
2023-03-06T14:49:26.041Z,27.23
2023-03-06T14:51:55.454Z,24.23
2023-03-06T14:54:26.381Z,20.47
2023-03-06T14:57:06.183Z,25.50
2023-03-06T14:59:52.981Z,21.53
2023-03-06T15:02:22.469Z,22.90
2023-03-06T15:05:35.814Z,16.47
2023-03-06T15:08:04.621Z,23.90
2023-03-06T15:10:33.939Z,24.90
2023-03-06T15:13:20.789Z,20.33
2023-03-06T15:16:06.270Z,30.83
2023-03-06T15:18:38.936Z,30.00
2023-03-06T15:21:19.627Z,30.70
2023-03-06T15:23:48.667Z,28.30
2023-03-06T15:26:22.120Z,30.50
2023-03-06T15:29:10.017Z,32.37
2023-03-06T15:31:42.341Z,29.80
2023-03-06T15:34:11.839Z,51.10
2023-03-06T15:36:49.236Z,29.03
2023-03-06T15:39:46.669Z,43.40
2023-03-06T15:42:20.281Z,33.53
2023-03-06T15:44:49.269Z,35.40
2023-03-06T15:47:16.041Z,28.10
2023-03-06T15:49:43.084Z,32.23
2023-03-06T15:52:10.106Z,23.87
2023-03-06T15:54:37.065Z,27.60
2023-03-06T15:57:08.581Z,35.53
2023-03-06T15:59:41.663Z,26.20
2023-03-06T16:02:19.550Z,30.07
2023-03-06T16:04:46.866Z,32.73
2023-03-06T16:07:14.224Z,28.73
2023-03-06T16:09:42.251Z,29.23
2023-03-06T16:12:27.933Z,27.87
2023-03-06T16:15:01.776Z,24.10
2023-03-06T16:17:28.521Z,38.07
2023-03-06T16:19:55.291Z,36.20
2023-03-06T16:22:22.048Z,32.60
2023-03-06T16:24:49.597Z,34.83
2023-03-06T16:27:19.164Z,26.87
2023-03-06T16:29:45.937Z,26.30
2023-03-06T16:32:12.711Z,31.90
2023-03-06T16:34:39.525Z,42.80
2023-03-06T16:37:06.441Z,38.30
2023-03-06T16:39:33.773Z,35.40
2023-03-06T16:42:00.448Z,31.13
2023-03-06T16:44:27.189Z,32.10
2023-03-06T16:46:53.894Z,44.70
2023-03-06T16:49:23.057Z,43.97
2023-03-06T16:51:50.398Z,30.00
2023-03-06T16:54:17.199Z,32.07
2023-03-06T16:56:43.943Z,28.23
2023-03-06T16:59:11.567Z,32.37
2023-03-06T17:01:42.662Z,35.57
2023-03-06T17:04:09.584Z,51.17
2023-03-06T17:06:36.520Z,35.07
2023-03-06T17:09:04.137Z,30.50
2023-03-06T17:11:30.877Z,30.67
2023-03-06T17:13:57.646Z,31.47
2023-03-06T17:16:24.441Z,28.60
2023-03-06T17:18:52.621Z,31.10
2023-03-06T17:21:19.598Z,28.47
2023-03-06T17:23:46.431Z,41.37
2023-03-06T17:26:15.544Z,28.17
2023-03-06T17:28:42.525Z,28.27
2023-03-06T17:31:18.233Z,29.00
2023-03-06T17:33:45.118Z,25.80
2023-03-06T17:36:14.407Z,29.67
2023-03-06T17:38:41.908Z,23.27
2023-03-06T17:41:09.879Z,31.43
2023-03-06T17:43:37.444Z,23.30
2023-03-06T17:46:12.201Z,23.40
2023-03-06T17:48:39.937Z,25.60
2023-03-06T17:51:07.563Z,34.93
2023-03-06T17:53:34.421Z,28.83
2023-03-06T17:56:04.431Z,25.47
2023-03-06T17:58:32.702Z,28.63
2023-03-06T18:00:59.958Z,31.47
2023-03-06T18:03:27.093Z,27.33
2023-03-06T18:06:04.812Z,26.80
2023-03-06T18:08:32.318Z,24.70
2023-03-06T18:11:04.332Z,29.30
2023-03-06T18:13:34.823Z,32.37
2023-03-06T18:16:01.879Z,25.90
2023-03-06T18:18:29.457Z,31.20
2023-03-06T18:20:56.367Z,27.80
2023-03-06T18:23:23.562Z,28.20
2023-03-06T18:25:50.765Z,32.50
2023-03-06T18:28:18.063Z,29.20
2023-03-06T18:30:44.939Z,35.47
2023-03-06T18:33:11.664Z,33.60
2023-03-06T18:35:38.349Z,28.90
2023-03-06T18:38:05.304Z,30.37
2023-03-06T18:40:32.159Z,26.63
2023-03-06T18:42:58.908Z,25.90
2023-03-06T18:45:25.747Z,29.40
2023-03-06T18:47:52.668Z,28.13
2023-03-06T18:50:19.435Z,31.38
2023-03-06T18:52:46.394Z,33.47
2023-03-06T18:55:13.116Z,31.87
2023-03-06T18:57:40.043Z,35.43
2023-03-06T19:00:07.389Z,33.20
2023-03-06T19:02:34.074Z,27.70
2023-03-06T19:05:00.793Z,32.40
2023-03-06T19:07:27.569Z,31.20
2023-03-06T19:09:54.351Z,31.07
2023-03-06T19:12:21.147Z,25.60
2023-03-06T19:14:48.017Z,30.10
2023-03-06T19:17:14.742Z,30.87
2023-03-06T19:19:41.560Z,35.67
2023-03-06T19:22:08.978Z,30.03
2023-03-06T19:24:35.639Z,27.97
2023-03-06T19:27:02.348Z,27.53
2023-03-06T19:29:29.322Z,23.80
2023-03-06T19:31:57.339Z,33.13
2023-03-06T19:34:24.207Z,31.90
2023-03-06T19:36:51.502Z,34.23
2023-03-06T19:39:18.315Z,32.83
2023-03-06T19:41:47.103Z,39.20
2023-03-06T19:44:14.674Z,35.00
2023-03-06T19:46:41.577Z,28.43
2023-03-06T19:49:12.211Z,31.67
2023-03-06T19:51:39.028Z,26.57
2023-03-06T19:54:05.976Z,31.70
2023-03-06T19:56:34.066Z,26.00
2023-03-06T19:59:00.912Z,26.67
2023-03-06T20:01:28.266Z,30.23
2023-03-06T20:03:59.432Z,30.20
2023-03-06T20:06:28.915Z,30.40
2023-03-06T20:08:56.275Z,29.20
2023-03-06T20:11:25.875Z,29.20
2023-03-06T20:13:53.074Z,29.87
2023-03-06T20:16:20.401Z,36.20
2023-03-06T20:18:47.131Z,33.20
2023-03-06T20:21:14.574Z,34.73
2023-03-06T20:23:41.910Z,29.53
2023-03-06T20:26:12.144Z,23.67
2023-03-06T20:28:39.541Z,27.90
2023-03-06T20:31:11.242Z,26.40
2023-03-06T20:33:38.040Z,31.53
2023-03-06T20:36:05.391Z,28.20
2023-03-06T20:38:32.230Z,30.33
2023-03-06T20:40:59.781Z,28.80
2023-03-06T20:43:26.576Z,30.83
2023-03-06T20:46:01.545Z,32.33
2023-03-06T20:48:29.263Z,34.60
2023-03-06T20:51:01.011Z,31.37
2023-03-06T20:53:28.117Z,43.20
2023-03-06T20:55:55.025Z,29.17
2023-03-06T20:58:23.457Z,30.80
2023-03-06T21:00:50.056Z,27.90
2023-03-06T21:03:16.673Z,32.37
2023-03-06T21:05:46.136Z,27.70
2023-03-06T21:08:12.723Z,32.07
2023-03-06T21:10:39.376Z,25.63
2023-03-06T21:13:06.099Z,25.33
2023-03-06T21:15:32.850Z,29.70
2023-03-06T21:17:59.447Z,26.87
2023-03-06T21:20:26.145Z,21.33
2023-03-06T21:22:52.787Z,24.07
2023-03-06T21:25:19.484Z,26.27
2023-03-06T21:27:46.582Z,29.63
2023-03-06T21:30:13.517Z,24.70
2023-03-06T21:32:40.960Z,23.70
2023-03-06T21:35:07.742Z,30.10
2023-03-06T21:37:34.314Z,25.40
2023-03-06T21:40:01.040Z,35.80
2023-03-06T21:42:27.698Z,23.33
2023-03-06T21:44:54.288Z,27.47
2023-03-06T21:47:20.921Z,24.93
2023-03-06T21:49:48.945Z,23.57
2023-03-06T21:52:15.589Z,27.80
2023-03-06T21:54:42.295Z,27.90
2023-03-06T21:57:08.935Z,28.77
2023-03-06T21:59:36.502Z,28.10
2023-03-06T22:02:03.198Z,31.13
2023-03-06T22:04:29.813Z,28.40
2023-03-06T22:06:56.495Z,28.33
2023-03-06T22:09:23.222Z,26.87
2023-03-06T22:11:49.769Z,27.77
2023-03-06T22:14:16.367Z,26.87
2023-03-06T22:16:42.982Z,30.20
2023-03-06T22:19:09.671Z,27.23
2023-03-06T22:21:36.371Z,25.90
2023-03-06T22:24:03.205Z,31.93
2023-03-06T22:26:29.970Z,28.10
2023-03-06T22:28:56.617Z,28.40
2023-03-06T22:31:25.819Z,31.23
2023-03-06T22:33:53.618Z,25.20
2023-03-06T22:36:22.286Z,22.97
2023-03-06T22:38:49.383Z,23.73
2023-03-06T22:41:17.615Z,28.07
2023-03-06T22:43:44.237Z,35.17
2023-03-06T22:46:13.942Z,27.87
2023-03-06T22:48:41.067Z,29.73
2023-03-06T22:51:10.644Z,30.50
2023-03-06T22:53:38.021Z,29.70
2023-03-06T22:56:06.616Z,32.73
2023-03-06T22:58:40.416Z,37.10
2023-03-06T23:01:09.979Z,27.90
2023-03-06T23:03:38.678Z,23.17
2023-03-06T23:06:10.479Z,36.23
2023-03-06T23:08:37.436Z,29.63
2023-03-06T23:11:09.295Z,33.43
2023-03-06T23:13:36.863Z,26.70
2023-03-06T23:16:05.334Z,23.30
2023-03-06T23:18:32.357Z,23.80
2023-03-06T23:20:59.030Z,25.20
2023-03-06T23:23:26.570Z,25.53
2023-03-06T23:25:59.089Z,27.07
2023-03-06T23:28:26.302Z,26.20
2023-03-06T23:30:53.072Z,29.57
2023-03-06T23:33:19.710Z,23.73
2023-03-06T23:35:46.755Z,21.40
2023-03-06T23:38:13.924Z,25.60
2023-03-06T23:40:40.537Z,25.57
2023-03-06T23:43:07.237Z,31.23
2023-03-06T23:45:33.917Z,26.93
2023-03-06T23:48:00.471Z,27.27
2023-03-06T23:50:27.121Z,25.13
2023-03-06T23:52:54.649Z,31.17
2023-03-06T23:55:21.479Z,18.47
2023-03-06T23:57:48.064Z,31.43
